sensor_id;sensor_type;location;lat;lon;timestamp;temperature;humidity
20233;DHT22;37438;55.674;13.074;2023-03-23T00:01:40;12.30;99.90
20233;DHT22;37438;55.674;13.074;2023-03-23T00:04:44;12.40;99.90
20233;DHT22;37438;55.674;13.074;2023-03-23T00:07:47;12.40;99.90
20233;DHT22;37438;55.674;13.074;2023-03-23T00:10:55;12.30;99.90
20233;DHT22;37438;55.674;13.074;2023-03-23T00:14:01;12.20;99.90
20233;DHT22;37438;55.674;13.074;2023-03-23T00:17:04;12.20;99.90
20233;DHT22;37438;55.674;13.074;2023-03-23T00:20:08;12.20;99.90
20233;DHT22;37438;55.674;13.074;2023-03-23T00:23:16;12.20;99.90
20233;DHT22;37438;55.674;13.074;2023-03-23T00:26:23;11.90;99.90
20233;DHT22;37438;55.674;13.074;2023-03-23T00:29:26;11.90;99.90
20233;DHT22;37438;55.674;13.074;2023-03-23T00:32:30;11.80;99.90
20233;DHT22;37438;55.674;13.074;2023-03-23T00:35:34;11.80;99.90
20233;DHT22;37438;55.674;13.074;2023-03-23T00:38:40;11.80;99.90
20233;DHT22;37438;55.674;13.074;2023-03-23T00:41:45;11.90;99.90
20233;DHT22;37438;55.674;13.074;2023-03-23T00:44:49;11.90;99.90
20233;DHT22;37438;55.674;13.074;2023-03-23T00:47:54;11.90;99.90
20233;DHT22;37438;55.674;13.074;2023-03-23T00:50:57;11.90;99.90
20233;DHT22;37438;55.674;13.074;2023-03-23T00:54:01;11.80;99.90
20233;DHT22;37438;55.674;13.074;2023-03-23T00:57:05;11.90;99.90
20233;DHT22;37438;55.674;13.074;2023-03-23T01:00:10;11.80;99.90
20233;DHT22;37438;55.674;13.074;2023-03-23T01:03:14;11.60;99.90
20233;DHT22;37438;55.674;13.074;2023-03-23T01:06:20;11.70;99.90
20233;DHT22;37438;55.674;13.074;2023-03-23T01:09:24;11.60;99.90
20233;DHT22;37438;55.674;13.074;2023-03-23T01:12:28;11.50;99.90
20233;DHT22;37438;55.674;13.074;2023-03-23T01:15:33;11.50;99.90
20233;DHT22;37438;55.674;13.074;2023-03-23T01:18:38;11.50;99.90
20233;DHT22;37438;55.674;13.074;2023-03-23T01:21:41;11.40;99.90
20233;DHT22;37438;55.674;13.074;2023-03-23T01:24:45;11.50;99.90
20233;DHT22;37438;55.674;13.074;2023-03-23T01:27:48;11.40;99.90
20233;DHT22;37438;55.674;13.074;2023-03-23T01:30:52;11.30;99.90
20233;DHT22;37438;55.674;13.074;2023-03-23T01:33:56;11.10;99.90
20233;DHT22;37438;55.674;13.074;2023-03-23T01:37:00;11.00;99.90
20233;DHT22;37438;55.674;13.074;2023-03-23T01:40:03;10.90;99.90
20233;DHT22;37438;55.674;13.074;2023-03-23T01:43:13;11.00;99.90
20233;DHT22;37438;55.674;13.074;2023-03-23T01:46:19;10.90;99.90
20233;DHT22;37438;55.674;13.074;2023-03-23T01:49:29;10.90;99.90
20233;DHT22;37438;55.674;13.074;2023-03-23T01:52:34;10.90;99.90
20233;DHT22;37438;55.674;13.074;2023-03-23T01:55:41;10.80;99.90
20233;DHT22;37438;55.674;13.074;2023-03-23T01:58:46;10.90;99.90
20233;DHT22;37438;55.674;13.074;2023-03-23T02:01:50;10.90;99.90
20233;DHT22;37438;55.674;13.074;2023-03-23T02:05:02;11.10;99.90
20233;DHT22;37438;55.674;13.074;2023-03-23T02:08:10;10.90;99.90
20233;DHT22;37438;55.674;13.074;2023-03-23T02:11:19;11.00;99.90
20233;DHT22;37438;55.674;13.074;2023-03-23T02:14:24;11.10;99.90
20233;DHT22;37438;55.674;13.074;2023-03-23T02:17:38;11.10;99.90
20233;DHT22;37438;55.674;13.074;2023-03-23T02:24:51;11.10;99.90
20233;DHT22;37438;55.674;13.074;2023-03-23T02:34:27;11.20;99.90
20233;DHT22;37438;55.674;13.074;2023-03-23T02:37:46;11.20;99.90
20233;DHT22;37438;55.674;13.074;2023-03-23T02:40:51;11.10;99.90
20233;DHT22;37438;55.674;13.074;2023-03-23T02:43:55;11.10;99.90
20233;DHT22;37438;55.674;13.074;2023-03-23T02:47:01;11.20;99.90
20233;DHT22;37438;55.674;13.074;2023-03-23T02:50:10;11.30;99.90
20233;DHT22;37438;55.674;13.074;2023-03-23T02:53:19;11.20;99.90
20233;DHT22;37438;55.674;13.074;2023-03-23T02:56:26;11.30;99.90
20233;DHT22;37438;55.674;13.074;2023-03-23T02:59:32;11.30;99.90
20233;DHT22;37438;55.674;13.074;2023-03-23T03:02:36;11.40;99.90
20233;DHT22;37438;55.674;13.074;2023-03-23T03:06:00;11.60;99.90
20233;DHT22;37438;55.674;13.074;2023-03-23T03:09:24;11.60;99.90
20233;DHT22;37438;55.674;13.074;2023-03-23T03:12:41;11.50;99.90
20233;DHT22;37438;55.674;13.074;2023-03-23T03:15:58;11.80;99.90
20233;DHT22;37438;55.674;13.074;2023-03-23T03:19:20;11.70;99.90
20233;DHT22;37438;55.674;13.074;2023-03-23T03:22:29;11.60;99.90
20233;DHT22;37438;55.674;13.074;2023-03-23T03:25:33;11.90;99.90
20233;DHT22;37438;55.674;13.074;2023-03-23T03:28:39;11.90;99.90
20233;DHT22;37438;55.674;13.074;2023-03-23T03:31:45;11.80;99.90
20233;DHT22;37438;55.674;13.074;2023-03-23T03:34:50;12.00;99.90
20233;DHT22;37438;55.674;13.074;2023-03-23T03:37:55;12.00;99.90
20233;DHT22;37438;55.674;13.074;2023-03-23T03:41:01;11.70;99.90
20233;DHT22;37438;55.674;13.074;2023-03-23T03:44:05;11.90;99.90
20233;DHT22;37438;55.674;13.074;2023-03-23T03:47:09;12.00;99.90
20233;DHT22;37438;55.674;13.074;2023-03-23T03:50:13;11.70;99.90
20233;DHT22;37438;55.674;13.074;2023-03-23T03:53:17;11.70;99.90
20233;DHT22;37438;55.674;13.074;2023-03-23T03:56:20;11.80;99.90
20233;DHT22;37438;55.674;13.074;2023-03-23T03:59:36;11.80;99.90
20233;DHT22;37438;55.674;13.074;2023-03-23T04:02:57;11.90;99.90
20233;DHT22;37438;55.674;13.074;2023-03-23T04:06:25;11.70;99.90
20233;DHT22;37438;55.674;13.074;2023-03-23T04:09:31;11.70;99.90
20233;DHT22;37438;55.674;13.074;2023-03-23T04:12:36;11.60;99.90
20233;DHT22;37438;55.674;13.074;2023-03-23T04:16:15;11.70;99.90
20233;DHT22;37438;55.674;13.074;2023-03-23T04:19:20;11.60;99.90
20233;DHT22;37438;55.674;13.074;2023-03-23T04:22:25;11.60;99.90
20233;DHT22;37438;55.674;13.074;2023-03-23T04:25:33;11.60;99.90
20233;DHT22;37438;55.674;13.074;2023-03-23T04:28:37;11.90;99.90
20233;DHT22;37438;55.674;13.074;2023-03-23T04:32:00;11.70;99.90
20233;DHT22;37438;55.674;13.074;2023-03-23T04:35:14;11.70;99.90
20233;DHT22;37438;55.674;13.074;2023-03-23T04:38:27;11.70;99.90
20233;DHT22;37438;55.674;13.074;2023-03-23T04:41:37;11.90;99.90
20233;DHT22;37438;55.674;13.074;2023-03-23T04:44:59;11.70;99.90
20233;DHT22;37438;55.674;13.074;2023-03-23T04:48:11;11.90;99.90
20233;DHT22;37438;55.674;13.074;2023-03-23T04:51:30;11.60;99.90
20233;DHT22;37438;55.674;13.074;2023-03-23T04:54:42;11.60;99.90
20233;DHT22;37438;55.674;13.074;2023-03-23T04:57:47;11.60;99.90
20233;DHT22;37438;55.674;13.074;2023-03-23T05:01:22;11.60;99.90
20233;DHT22;37438;55.674;13.074;2023-03-23T05:04:49;11.50;99.90
20233;DHT22;37438;55.674;13.074;2023-03-23T05:08:00;11.70;99.90
20233;DHT22;37438;55.674;13.074;2023-03-23T05:11:07;11.50;99.90
20233;DHT22;37438;55.674;13.074;2023-03-23T05:14:14;11.50;99.90
20233;DHT22;37438;55.674;13.074;2023-03-23T05:17:22;11.40;99.90
20233;DHT22;37438;55.674;13.074;2023-03-23T05:20:28;11.40;99.90
20233;DHT22;37438;55.674;13.074;2023-03-23T05:23:38;11.60;99.90
20233;DHT22;37438;55.674;13.074;2023-03-23T05:26:52;11.60;99.90
20233;DHT22;37438;55.674;13.074;2023-03-23T05:30:01;11.60;99.90
20233;DHT22;37438;55.674;13.074;2023-03-23T05:33:07;11.60;99.90
20233;DHT22;37438;55.674;13.074;2023-03-23T05:36:23;11.60;99.90
20233;DHT22;37438;55.674;13.074;2023-03-23T05:39:44;11.40;99.90
20233;DHT22;37438;55.674;13.074;2023-03-23T05:42:51;11.40;99.90
20233;DHT22;37438;55.674;13.074;2023-03-23T05:46:01;11.50;99.90
20233;DHT22;37438;55.674;13.074;2023-03-23T05:49:07;11.70;99.90
20233;DHT22;37438;55.674;13.074;2023-03-23T05:52:15;11.60;99.90
20233;DHT22;37438;55.674;13.074;2023-03-23T05:55:18;11.80;99.90
20233;DHT22;37438;55.674;13.074;2023-03-23T05:58:31;11.60;99.90
20233;DHT22;37438;55.674;13.074;2023-03-23T06:01:34;11.60;99.90
20233;DHT22;37438;55.674;13.074;2023-03-23T06:04:38;11.80;99.90
20233;DHT22;37438;55.674;13.074;2023-03-23T06:07:52;11.70;99.90
20233;DHT22;37438;55.674;13.074;2023-03-23T06:10:57;11.70;99.90
20233;DHT22;37438;55.674;13.074;2023-03-23T06:14:01;11.70;99.90
20233;DHT22;37438;55.674;13.074;2023-03-23T06:17:06;11.80;99.90
20233;DHT22;37438;55.674;13.074;2023-03-23T06:20:12;11.80;99.90
20233;DHT22;37438;55.674;13.074;2023-03-23T06:23:17;11.70;99.90
20233;DHT22;37438;55.674;13.074;2023-03-23T06:26:28;11.80;99.90
20233;DHT22;37438;55.674;13.074;2023-03-23T06:29:35;11.70;99.90
20233;DHT22;37438;55.674;13.074;2023-03-23T06:32:38;11.80;99.90
20233;DHT22;37438;55.674;13.074;2023-03-23T06:35:46;11.70;99.90
20233;DHT22;37438;55.674;13.074;2023-03-23T06:39:09;11.80;99.90
20233;DHT22;37438;55.674;13.074;2023-03-23T06:42:39;11.60;99.90
20233;DHT22;37438;55.674;13.074;2023-03-23T06:46:01;11.80;99.90
20233;DHT22;37438;55.674;13.074;2023-03-23T06:49:13;11.70;99.90
20233;DHT22;37438;55.674;13.074;2023-03-23T06:52:26;11.50;99.90
20233;DHT22;37438;55.674;13.074;2023-03-23T06:55:30;11.50;99.90
20233;DHT22;37438;55.674;13.074;2023-03-23T06:58:34;11.60;99.90
20233;DHT22;37438;55.674;13.074;2023-03-23T07:01:39;11.60;99.90
20233;DHT22;37438;55.674;13.074;2023-03-23T07:04:43;11.60;99.90
20233;DHT22;37438;55.674;13.074;2023-03-23T07:07:52;11.40;99.90
20233;DHT22;37438;55.674;13.074;2023-03-23T07:11:07;11.40;99.90
20233;DHT22;37438;55.674;13.074;2023-03-23T07:14:12;11.40;99.90
20233;DHT22;37438;55.674;13.074;2023-03-23T07:17:17;11.20;99.90
20233;DHT22;37438;55.674;13.074;2023-03-23T07:20:47;11.10;99.90
20233;DHT22;37438;55.674;13.074;2023-03-23T07:23:52;11.00;99.90
20233;DHT22;37438;55.674;13.074;2023-03-23T07:27:15;10.90;99.90
20233;DHT22;37438;55.674;13.074;2023-03-23T07:30:19;10.80;99.90
20233;DHT22;37438;55.674;13.074;2023-03-23T07:33:23;10.70;99.90
20233;DHT22;37438;55.674;13.074;2023-03-23T07:36:27;10.60;99.90
20233;DHT22;37438;55.674;13.074;2023-03-23T07:39:31;10.50;99.90
20233;DHT22;37438;55.674;13.074;2023-03-23T07:42:36;10.50;99.90
20233;DHT22;37438;55.674;13.074;2023-03-23T07:45:40;10.50;99.90
20233;DHT22;37438;55.674;13.074;2023-03-23T07:48:44;10.40;99.90
20233;DHT22;37438;55.674;13.074;2023-03-23T07:51:48;10.40;99.90
20233;DHT22;37438;55.674;13.074;2023-03-23T07:54:52;10.40;99.90
20233;DHT22;37438;55.674;13.074;2023-03-23T07:58:06;10.40;99.90
20233;DHT22;37438;55.674;13.074;2023-03-23T08:01:10;10.50;99.90
20233;DHT22;37438;55.674;13.074;2023-03-23T08:04:13;10.60;99.90
20233;DHT22;37438;55.674;13.074;2023-03-23T08:07:38;10.60;99.90
20233;DHT22;37438;55.674;13.074;2023-03-23T08:10:54;10.50;99.90
20233;DHT22;37438;55.674;13.074;2023-03-23T08:14:16;10.50;99.90
20233;DHT22;37438;55.674;13.074;2023-03-23T08:17:34;10.60;99.90
20233;DHT22;37438;55.674;13.074;2023-03-23T08:20:53;10.70;99.90
20233;DHT22;37438;55.674;13.074;2023-03-23T08:24:10;10.90;99.90
20233;DHT22;37438;55.674;13.074;2023-03-23T08:27:24;10.60;99.90
20233;DHT22;37438;55.674;13.074;2023-03-23T08:30:44;10.60;99.90
20233;DHT22;37438;55.674;13.074;2023-03-23T08:33:59;10.50;99.90
20233;DHT22;37438;55.674;13.074;2023-03-23T08:37:35;10.40;99.90
20233;DHT22;37438;55.674;13.074;2023-03-23T08:41:15;10.20;99.90
20233;DHT22;37438;55.674;13.074;2023-03-23T08:44:37;10.20;99.90
20233;DHT22;37438;55.674;13.074;2023-03-23T08:48:05;10.10;99.90
20233;DHT22;37438;55.674;13.074;2023-03-23T08:51:13;10.10;99.90
20233;DHT22;37438;55.674;13.074;2023-03-23T08:54:16;10.00;99.90
20233;DHT22;37438;55.674;13.074;2023-03-23T08:57:32;10.00;99.90
20233;DHT22;37438;55.674;13.074;2023-03-23T09:00:49;9.90;99.90
20233;DHT22;37438;55.674;13.074;2023-03-23T09:04:03;9.90;99.90
20233;DHT22;37438;55.674;13.074;2023-03-23T09:07:28;9.90;99.90
20233;DHT22;37438;55.674;13.074;2023-03-23T09:10:32;9.90;99.90
20233;DHT22;37438;55.674;13.074;2023-03-23T09:13:37;9.90;99.90
20233;DHT22;37438;55.674;13.074;2023-03-23T09:16:40;10.00;99.90
20233;DHT22;37438;55.674;13.074;2023-03-23T09:19:44;10.00;99.90
20233;DHT22;37438;55.674;13.074;2023-03-23T09:22:51;10.20;99.90
20233;DHT22;37438;55.674;13.074;2023-03-23T09:25:54;10.20;99.90
20233;DHT22;37438;55.674;13.074;2023-03-23T09:28:58;10.20;99.90
20233;DHT22;37438;55.674;13.074;2023-03-23T09:32:01;10.30;99.90
20233;DHT22;37438;55.674;13.074;2023-03-23T09:35:06;10.50;99.90
20233;DHT22;37438;55.674;13.074;2023-03-23T09:38:11;10.40;99.90
20233;DHT22;37438;55.674;13.074;2023-03-23T09:45:05;10.50;99.90
20233;DHT22;37438;55.674;13.074;2023-03-23T09:49:17;10.50;99.90
20233;DHT22;37438;55.674;13.074;2023-03-23T09:51:57;10.60;99.90
20233;DHT22;37438;55.674;13.074;2023-03-23T09:55:03;10.70;99.90
20233;DHT22;37438;55.674;13.074;2023-03-23T09:58:16;10.50;99.90
20233;DHT22;37438;55.674;13.074;2023-03-23T10:01:34;10.70;99.90
20233;DHT22;37438;55.674;13.074;2023-03-23T10:04:50;10.80;99.90
20233;DHT22;37438;55.674;13.074;2023-03-23T10:07:55;11.60;99.90
20233;DHT22;37438;55.674;13.074;2023-03-23T10:14:27;11.50;99.90
20233;DHT22;37438;55.674;13.074;2023-03-23T10:21:01;11.50;99.90
20233;DHT22;37438;55.674;13.074;2023-03-23T10:24:10;11.40;99.90
20233;DHT22;37438;55.674;13.074;2023-03-23T10:30:36;11.70;99.90
20233;DHT22;37438;55.674;13.074;2023-03-23T10:33:48;11.60;99.90
20233;DHT22;37438;55.674;13.074;2023-03-23T10:40:25;12.00;99.90
20233;DHT22;37438;55.674;13.074;2023-03-23T10:43:30;12.10;99.90
20233;DHT22;37438;55.674;13.074;2023-03-23T10:46:51;13.10;99.90
20233;DHT22;37438;55.674;13.074;2023-03-23T10:49:59;13.20;99.90
20233;DHT22;37438;55.674;13.074;2023-03-23T10:53:15;13.60;99.90
20233;DHT22;37438;55.674;13.074;2023-03-23T10:56:25;12.40;99.90
20233;DHT22;37438;55.674;13.074;2023-03-23T10:59:31;12.10;99.90
20233;DHT22;37438;55.674;13.074;2023-03-23T11:02:43;12.20;99.90
20233;DHT22;37438;55.674;13.074;2023-03-23T11:05:56;12.30;99.90
20233;DHT22;37438;55.674;13.074;2023-03-23T11:09:14;12.20;99.90
20233;DHT22;37438;55.674;13.074;2023-03-23T11:12:20;12.70;99.90
20233;DHT22;37438;55.674;13.074;2023-03-23T11:15:53;13.20;99.90
20233;DHT22;37438;55.674;13.074;2023-03-23T11:18:58;13.40;99.90
20233;DHT22;37438;55.674;13.074;2023-03-23T11:22:12;13.50;99.90
20233;DHT22;37438;55.674;13.074;2023-03-23T11:25:16;13.80;99.90
20233;DHT22;37438;55.674;13.074;2023-03-23T11:28:20;13.40;99.90
20233;DHT22;37438;55.674;13.074;2023-03-23T11:31:27;12.80;99.90
20233;DHT22;37438;55.674;13.074;2023-03-23T11:34:33;13.30;99.90
20233;DHT22;37438;55.674;13.074;2023-03-23T11:37:45;13.50;99.90
20233;DHT22;37438;55.674;13.074;2023-03-23T11:40:51;13.30;99.90
20233;DHT22;37438;55.674;13.074;2023-03-23T11:43:56;13.50;99.90
20233;DHT22;37438;55.674;13.074;2023-03-23T11:50:25;13.10;87.40
20233;DHT22;37438;55.674;13.074;2023-03-23T11:53:59;13.00;99.90
20233;DHT22;37438;55.674;13.074;2023-03-23T11:57:11;13.00;99.90
20233;DHT22;37438;55.674;13.074;2023-03-23T12:00:22;12.70;99.90
20233;DHT22;37438;55.674;13.074;2023-03-23T12:07:06;12.70;1.00
20233;DHT22;37438;55.674;13.074;2023-03-23T12:10:46;12.50;99.90
20233;DHT22;37438;55.674;13.074;2023-03-23T12:17:29;11.60;99.90
20233;DHT22;37438;55.674;13.074;2023-03-23T12:27:42;12.10;99.90
20233;DHT22;37438;55.674;13.074;2023-03-23T12:44:08;12.70;49.10
20233;DHT22;37438;55.674;13.074;2023-03-23T12:54:09;12.60;10.70
20233;DHT22;37438;55.674;13.074;2023-03-23T13:00:33;12.60;1.00
20233;DHT22;37438;55.674;13.074;2023-03-23T13:04:14;12.40;25.50
20233;DHT22;37438;55.674;13.074;2023-03-23T13:07:17;12.50;80.10
20233;DHT22;37438;55.674;13.074;2023-03-23T13:10:35;12.30;72.60
20233;DHT22;37438;55.674;13.074;2023-03-23T13:13:53;12.40;20.30
20233;DHT22;37438;55.674;13.074;2023-03-23T13:17:35;12.90;1.00
20233;DHT22;37438;55.674;13.074;2023-03-23T13:21:04;12.40;1.00
20233;DHT22;37438;55.674;13.074;2023-03-23T13:24:12;12.70;1.00
20233;DHT22;37438;55.674;13.074;2023-03-23T13:27:17;12.80;99.90
20233;DHT22;37438;55.674;13.074;2023-03-23T13:30:21;13.80;99.90
20233;DHT22;37438;55.674;13.074;2023-03-23T13:33:33;12.90;99.90
20233;DHT22;37438;55.674;13.074;2023-03-23T13:43:31;12.50;99.90
20233;DHT22;37438;55.674;13.074;2023-03-23T13:46:35;12.90;99.90
20233;DHT22;37438;55.674;13.074;2023-03-23T13:50:03;12.90;99.90
20233;DHT22;37438;55.674;13.074;2023-03-23T13:53:21;12.50;99.90
20233;DHT22;37438;55.674;13.074;2023-03-23T13:56:58;13.40;99.90
20233;DHT22;37438;55.674;13.074;2023-03-23T14:00:09;13.10;99.90
20233;DHT22;37438;55.674;13.074;2023-03-23T14:03:16;14.40;99.90
20233;DHT22;37438;55.674;13.074;2023-03-23T14:06:22;14.30;99.90
20233;DHT22;37438;55.674;13.074;2023-03-23T14:09:42;13.60;99.90
20233;DHT22;37438;55.674;13.074;2023-03-23T14:12:50;13.90;99.90
20233;DHT22;37438;55.674;13.074;2023-03-23T14:19:26;14.20;84.20
20233;DHT22;37438;55.674;13.074;2023-03-23T14:22:33;14.40;65.70
20233;DHT22;37438;55.674;13.074;2023-03-23T14:25:37;14.80;28.10
20233;DHT22;37438;55.674;13.074;2023-03-23T14:28:44;13.90;27.30
20233;DHT22;37438;55.674;13.074;2023-03-23T14:31:56;13.40;58.90
20233;DHT22;37438;55.674;13.074;2023-03-23T14:35:07;12.10;99.90
20233;DHT22;37438;55.674;13.074;2023-03-23T14:38:19;11.90;99.90
20233;DHT22;37438;55.674;13.074;2023-03-23T14:41:23;11.90;99.90
20233;DHT22;37438;55.674;13.074;2023-03-23T14:44:37;12.90;99.90
20233;DHT22;37438;55.674;13.074;2023-03-23T14:48:08;12.80;99.90
20233;DHT22;37438;55.674;13.074;2023-03-23T14:51:18;12.70;99.90
20233;DHT22;37438;55.674;13.074;2023-03-23T14:54:25;13.30;99.90
20233;DHT22;37438;55.674;13.074;2023-03-23T14:57:29;12.60;95.80
20233;DHT22;37438;55.674;13.074;2023-03-23T15:00:41;12.90;99.90
20233;DHT22;37438;55.674;13.074;2023-03-23T15:04:07;12.60;98.60
20233;DHT22;37438;55.674;13.074;2023-03-23T15:07:13;12.10;99.90
20233;DHT22;37438;55.674;13.074;2023-03-23T15:10:21;12.00;99.90
20233;DHT22;37438;55.674;13.074;2023-03-23T15:13:25;12.20;99.90
20233;DHT22;37438;55.674;13.074;2023-03-23T15:16:30;11.90;99.90
20233;DHT22;37438;55.674;13.074;2023-03-23T15:19:37;11.80;99.90
20233;DHT22;37438;55.674;13.074;2023-03-23T15:22:47;12.00;99.90
20233;DHT22;37438;55.674;13.074;2023-03-23T15:25:53;12.30;99.90
20233;DHT22;37438;55.674;13.074;2023-03-23T15:29:18;12.90;99.90
20233;DHT22;37438;55.674;13.074;2023-03-23T15:32:31;12.60;93.10
20233;DHT22;37438;55.674;13.074;2023-03-23T15:35:37;12.60;99.90
20233;DHT22;37438;55.674;13.074;2023-03-23T15:38:43;12.30;99.90
20233;DHT22;37438;55.674;13.074;2023-03-23T15:41:49;12.70;99.60
20233;DHT22;37438;55.674;13.074;2023-03-23T15:45:26;12.40;85.60
20233;DHT22;37438;55.674;13.074;2023-03-23T15:48:53;12.50;84.30
20233;DHT22;37438;55.674;13.074;2023-03-23T15:51:54;12.10;99.90
20233;DHT22;37438;55.674;13.074;2023-03-23T15:54:58;12.50;95.10
20233;DHT22;37438;55.674;13.074;2023-03-23T15:58:08;12.10;99.90
20233;DHT22;37438;55.674;13.074;2023-03-23T16:01:25;12.40;94.00
20233;DHT22;37438;55.674;13.074;2023-03-23T16:04:30;12.50;93.20
20233;DHT22;37438;55.674;13.074;2023-03-23T16:07:36;11.80;95.50
20233;DHT22;37438;55.674;13.074;2023-03-23T16:10:41;11.60;96.50
20233;DHT22;37438;55.674;13.074;2023-03-23T16:13:48;11.70;99.90
20233;DHT22;37438;55.674;13.074;2023-03-23T16:16:52;11.80;99.90
20233;DHT22;37438;55.674;13.074;2023-03-23T16:19:56;12.00;96.10
20233;DHT22;37438;55.674;13.074;2023-03-23T16:23:00;11.60;99.90
20233;DHT22;37438;55.674;13.074;2023-03-23T16:26:05;11.50;99.90
20233;DHT22;37438;55.674;13.074;2023-03-23T16:29:13;11.60;99.90
20233;DHT22;37438;55.674;13.074;2023-03-23T16:32:37;12.10;63.20
20233;DHT22;37438;55.674;13.074;2023-03-23T16:35:40;12.20;43.70
20233;DHT22;37438;55.674;13.074;2023-03-23T16:38:45;12.20;24.70
20233;DHT22;37438;55.674;13.074;2023-03-23T16:41:54;11.80;22.80
20233;DHT22;37438;55.674;13.074;2023-03-23T16:44:58;10.70;99.90
20233;DHT22;37438;55.674;13.074;2023-03-23T16:48:03;10.00;99.90
20233;DHT22;37438;55.674;13.074;2023-03-23T16:51:08;9.90;38.90
20233;DHT22;37438;55.674;13.074;2023-03-23T16:54:12;9.60;99.90
20233;DHT22;37438;55.674;13.074;2023-03-23T16:57:16;9.50;1.00
20233;DHT22;37438;55.674;13.074;2023-03-23T17:00:21;9.40;99.90
20233;DHT22;37438;55.674;13.074;2023-03-23T17:03:26;9.30;99.90
20233;DHT22;37438;55.674;13.074;2023-03-23T17:06:31;9.20;1.00
20233;DHT22;37438;55.674;13.074;2023-03-23T17:09:35;9.10;99.90
20233;DHT22;37438;55.674;13.074;2023-03-23T17:12:39;9.00;99.90
20233;DHT22;37438;55.674;13.074;2023-03-23T17:15:44;8.90;1.00
20233;DHT22;37438;55.674;13.074;2023-03-23T17:18:50;8.80;99.90
20233;DHT22;37438;55.674;13.074;2023-03-23T17:21:55;8.70;59.30
20233;DHT22;37438;55.674;13.074;2023-03-23T17:25:00;8.70;99.90
20233;DHT22;37438;55.674;13.074;2023-03-23T17:28:05;8.70;99.90
20233;DHT22;37438;55.674;13.074;2023-03-23T17:31:10;8.60;99.90
20233;DHT22;37438;55.674;13.074;2023-03-23T17:34:15;8.50;1.00
20233;DHT22;37438;55.674;13.074;2023-03-23T17:37:22;8.50;99.90
20233;DHT22;37438;55.674;13.074;2023-03-23T17:40:26;8.40;99.90
20233;DHT22;37438;55.674;13.074;2023-03-23T17:43:31;8.40;99.90
20233;DHT22;37438;55.674;13.074;2023-03-23T17:46:36;8.40;69.70
20233;DHT22;37438;55.674;13.074;2023-03-23T17:49:42;8.30;99.90
20233;DHT22;37438;55.674;13.074;2023-03-23T17:52:47;8.20;99.90
20233;DHT22;37438;55.674;13.074;2023-03-23T17:55:53;8.20;99.90
20233;DHT22;37438;55.674;13.074;2023-03-23T17:58:57;8.20;99.90
20233;DHT22;37438;55.674;13.074;2023-03-23T18:02:01;8.20;99.90
20233;DHT22;37438;55.674;13.074;2023-03-23T18:05:06;8.30;99.90
20233;DHT22;37438;55.674;13.074;2023-03-23T18:08:12;8.20;99.90
20233;DHT22;37438;55.674;13.074;2023-03-23T18:11:16;8.30;99.90
20233;DHT22;37438;55.674;13.074;2023-03-23T18:14:21;8.20;99.90
20233;DHT22;37438;55.674;13.074;2023-03-23T18:17:25;8.30;99.90
20233;DHT22;37438;55.674;13.074;2023-03-23T18:20:31;8.30;99.90
20233;DHT22;37438;55.674;13.074;2023-03-23T18:23:36;8.20;99.90
20233;DHT22;37438;55.674;13.074;2023-03-23T18:26:52;8.40;99.90
20233;DHT22;37438;55.674;13.074;2023-03-23T18:29:57;8.30;99.90
20233;DHT22;37438;55.674;13.074;2023-03-23T18:33:01;8.30;99.90
20233;DHT22;37438;55.674;13.074;2023-03-23T18:36:06;8.40;99.90
20233;DHT22;37438;55.674;13.074;2023-03-23T18:39:11;8.30;99.90
20233;DHT22;37438;55.674;13.074;2023-03-23T18:42:15;8.30;99.90
20233;DHT22;37438;55.674;13.074;2023-03-23T18:45:20;8.20;99.90
20233;DHT22;37438;55.674;13.074;2023-03-23T18:48:24;8.20;99.90
20233;DHT22;37438;55.674;13.074;2023-03-23T18:51:29;8.10;99.90
20233;DHT22;37438;55.674;13.074;2023-03-23T18:54:34;8.20;99.90
20233;DHT22;37438;55.674;13.074;2023-03-23T18:57:39;8.10;99.90
20233;DHT22;37438;55.674;13.074;2023-03-23T19:00:43;8.10;99.90
20233;DHT22;37438;55.674;13.074;2023-03-23T19:03:48;8.00;99.90
20233;DHT22;37438;55.674;13.074;2023-03-23T19:06:53;8.00;99.90
20233;DHT22;37438;55.674;13.074;2023-03-23T19:09:57;8.10;99.90
20233;DHT22;37438;55.674;13.074;2023-03-23T19:13:02;8.10;99.90
20233;DHT22;37438;55.674;13.074;2023-03-23T19:16:06;8.00;99.90
20233;DHT22;37438;55.674;13.074;2023-03-23T19:19:11;8.10;99.90
20233;DHT22;37438;55.674;13.074;2023-03-23T19:22:16;8.10;99.90
20233;DHT22;37438;55.674;13.074;2023-03-23T19:25:20;8.10;99.90
20233;DHT22;37438;55.674;13.074;2023-03-23T19:28:25;8.10;99.90
20233;DHT22;37438;55.674;13.074;2023-03-23T19:31:33;8.20;99.90
20233;DHT22;37438;55.674;13.074;2023-03-23T19:34:38;8.20;99.90
20233;DHT22;37438;55.674;13.074;2023-03-23T19:37:42;8.20;99.90
20233;DHT22;37438;55.674;13.074;2023-03-23T19:40:53;8.20;99.90
20233;DHT22;37438;55.674;13.074;2023-03-23T19:43:59;8.20;99.90
20233;DHT22;37438;55.674;13.074;2023-03-23T19:47:04;8.20;99.90
20233;DHT22;37438;55.674;13.074;2023-03-23T19:50:10;8.20;99.90
20233;DHT22;37438;55.674;13.074;2023-03-23T19:53:14;8.20;99.90
20233;DHT22;37438;55.674;13.074;2023-03-23T19:56:19;8.10;99.90
20233;DHT22;37438;55.674;13.074;2023-03-23T19:59:25;8.10;99.90
20233;DHT22;37438;55.674;13.074;2023-03-23T20:02:29;8.00;99.90
20233;DHT22;37438;55.674;13.074;2023-03-23T20:05:33;8.00;99.90
20233;DHT22;37438;55.674;13.074;2023-03-23T20:08:39;7.90;99.90
20233;DHT22;37438;55.674;13.074;2023-03-23T20:11:46;7.90;99.90
20233;DHT22;37438;55.674;13.074;2023-03-23T20:14:53;7.80;99.90
20233;DHT22;37438;55.674;13.074;2023-03-23T20:17:58;7.80;99.90
20233;DHT22;37438;55.674;13.074;2023-03-23T20:21:05;7.70;99.90
20233;DHT22;37438;55.674;13.074;2023-03-23T20:24:10;7.70;99.90
20233;DHT22;37438;55.674;13.074;2023-03-23T20:27:15;7.70;14.20
20233;DHT22;37438;55.674;13.074;2023-03-23T20:30:20;7.70;99.90
20233;DHT22;37438;55.674;13.074;2023-03-23T20:33:25;7.70;99.90
20233;DHT22;37438;55.674;13.074;2023-03-23T20:36:40;7.70;99.90
20233;DHT22;37438;55.674;13.074;2023-03-23T20:39:45;7.70;99.90
20233;DHT22;37438;55.674;13.074;2023-03-23T20:42:51;7.90;99.90
20233;DHT22;37438;55.674;13.074;2023-03-23T20:45:58;7.90;99.90
20233;DHT22;37438;55.674;13.074;2023-03-23T20:49:02;7.90;99.90
20233;DHT22;37438;55.674;13.074;2023-03-23T20:52:09;8.00;93.00
20233;DHT22;37438;55.674;13.074;2023-03-23T20:55:15;8.00;99.90
20233;DHT22;37438;55.674;13.074;2023-03-23T20:58:19;8.10;99.90
20233;DHT22;37438;55.674;13.074;2023-03-23T21:01:24;8.10;99.90